createdAt,value
2023-04-27T00:01:19.180Z,-1.41
2023-04-27T00:02:59.834Z,-1.44
2023-04-27T00:04:40.199Z,-1.47
2023-04-27T00:06:20.588Z,-1.48
2023-04-27T00:08:00.891Z,-1.5
2023-04-27T00:09:41.287Z,-1.51
2023-04-27T00:11:21.781Z,-1.51
2023-04-27T00:13:02.172Z,-1.51
2023-04-27T00:14:42.520Z,-1.55
2023-04-27T00:16:23.017Z,-1.52
2023-04-27T00:18:03.314Z,-1.51
2023-04-27T00:19:43.726Z,-1.57
2023-04-27T00:21:24.124Z,-1.55
2023-04-27T00:23:04.592Z,-1.51
2023-04-27T00:24:44.949Z,-1.57
2023-04-27T00:26:25.385Z,-1.51
2023-04-27T00:28:05.787Z,-1.52
2023-04-27T00:29:46.165Z,-1.54
2023-04-27T00:31:26.472Z,-1.54
2023-04-27T00:33:06.865Z,-1.5
2023-04-27T00:34:47.254Z,-1.5
2023-04-27T00:36:27.725Z,-1.44
2023-04-27T00:38:08.065Z,-1.44
2023-04-27T00:39:48.412Z,-1.4
2023-04-27T00:41:28.924Z,-1.41
2023-04-27T00:43:09.328Z,-1.38
2023-04-27T00:44:49.780Z,-1.4
2023-04-27T00:46:30.200Z,-1.38
2023-04-27T00:48:10.569Z,-1.37
2023-04-27T00:49:50.898Z,-1.34
2023-04-27T00:51:31.344Z,-1.31
2023-04-27T00:53:11.706Z,-1.3
2023-04-27T00:54:52.100Z,-1.23
2023-04-27T00:56:32.500Z,-1.18
2023-04-27T00:58:12.907Z,-1.13
2023-04-27T00:59:53.274Z,-1.11
2023-04-27T01:01:33.779Z,-1.13
2023-04-27T01:03:14.243Z,-1.16
2023-04-27T01:04:54.497Z,-1.18
2023-04-27T01:06:34.815Z,-1.23
2023-04-27T01:08:15.248Z,-1.23
2023-04-27T01:09:55.607Z,-1.18
2023-04-27T01:11:36.007Z,-1.24
2023-04-27T01:13:16.514Z,-1.21
2023-04-27T01:14:56.888Z,-1.24
2023-04-27T01:16:37.330Z,-1.24
2023-04-27T01:18:17.665Z,-1.23
2023-04-27T01:19:58.154Z,-1.24
2023-04-27T01:21:38.616Z,-1.27
2023-04-27T01:23:19.028Z,-1.3
2023-04-27T01:24:59.434Z,-1.3
2023-04-27T01:26:39.810Z,-1.3
2023-04-27T01:28:20.203Z,-1.31
2023-04-27T01:30:00.625Z,-1.31
2023-04-27T01:31:41.076Z,-1.28
2023-04-27T01:33:21.394Z,-1.27
2023-04-27T01:35:01.817Z,-1.26
2023-04-27T01:36:42.205Z,-1.24
2023-04-27T01:38:22.668Z,-1.21
2023-04-27T01:40:03.021Z,-1.2
2023-04-27T01:41:43.404Z,-1.17
2023-04-27T01:43:23.798Z,-1.16
2023-04-27T01:45:04.257Z,-1.16
2023-04-27T01:46:44.736Z,-1.11
2023-04-27T01:48:25.053Z,-1.13
2023-04-27T01:50:05.443Z,-1.11
2023-04-27T01:51:45.781Z,-1.07
2023-04-27T01:53:26.112Z,-1.01
2023-04-27T01:55:06.496Z,-0.97
2023-04-27T01:56:46.931Z,-0.99
2023-04-27T01:58:27.283Z,-0.94
2023-04-27T02:00:07.735Z,-0.89
2023-04-27T02:01:48.179Z,-0.88
2023-04-27T02:03:28.606Z,-0.85
2023-04-27T02:05:08.909Z,-0.79
2023-04-27T02:06:49.248Z,-0.75
2023-04-27T02:08:29.708Z,-0.7
2023-04-27T02:10:10.066Z,-0.68
2023-04-27T02:11:50.446Z,-0.61
2023-04-27T02:13:30.838Z,-0.58
2023-04-27T02:15:11.250Z,-0.54
2023-04-27T02:16:51.673Z,-0.52
2023-04-27T02:18:32.137Z,-0.51
2023-04-27T02:20:12.539Z,-0.48
2023-04-27T02:21:52.912Z,-0.43
2023-04-27T02:23:33.453Z,-0.43
2023-04-27T02:25:13.808Z,-0.41
2023-04-27T02:26:54.265Z,-0.38
2023-04-27T02:28:34.728Z,-0.38
2023-04-27T02:30:15.089Z,-0.31
2023-04-27T02:31:55.542Z,-0.31
2023-04-27T02:33:35.921Z,-0.32
2023-04-27T02:35:16.317Z,-0.31
2023-04-27T02:36:56.791Z,-0.32
2023-04-27T02:38:37.220Z,-0.3
2023-04-27T02:40:17.602Z,-0.3
2023-04-27T02:41:58.009Z,-0.27
2023-04-27T02:43:38.413Z,-0.28
2023-04-27T02:45:18.778Z,-0.3
2023-04-27T02:46:59.295Z,-0.28
2023-04-27T02:48:39.499Z,-0.25
2023-04-27T02:50:19.879Z,-0.2
2023-04-27T02:52:00.280Z,-0.18
2023-04-27T02:53:40.691Z,-0.17
2023-04-27T02:55:21.073Z,-0.14
2023-04-27T02:57:01.515Z,-0.13
2023-04-27T02:58:41.890Z,-0.13
2023-04-27T03:00:22.255Z,-0.14
2023-04-27T03:02:02.717Z,-0.14
2023-04-27T03:03:43.272Z,-0.13
2023-04-27T03:05:23.517Z,-0.14
2023-04-27T03:07:03.866Z,-0.14
2023-04-27T03:08:44.275Z,-0.14
2023-04-27T03:10:24.705Z,-0.14
2023-04-27T03:12:05.140Z,-0.13
2023-04-27T03:13:45.456Z,-0.14
2023-04-27T03:15:25.944Z,-0.11
2023-04-27T03:17:06.249Z,-0.11
2023-04-27T03:18:46.719Z,-0.13
2023-04-27T03:20:27.155Z,-0.13
2023-04-27T03:22:07.567Z,-0.13
2023-04-27T03:23:47.955Z,-0.14
2023-04-27T03:25:28.377Z,-0.11
2023-04-27T03:27:08.824Z,-0.14
2023-04-27T03:28:49.247Z,-0.14
2023-04-27T03:30:29.741Z,-0.17
2023-04-27T03:32:10.284Z,-0.14
2023-04-27T03:33:50.564Z,-0.21
2023-04-27T03:35:30.996Z,-0.25
2023-04-27T03:37:11.431Z,-0.28
2023-04-27T03:38:51.936Z,-0.32
2023-04-27T03:40:32.313Z,-0.37
2023-04-27T03:42:12.787Z,-0.37
2023-04-27T03:43:53.137Z,-0.39
2023-04-27T03:45:33.590Z,-0.39
2023-04-27T03:47:13.950Z,-0.42
2023-04-27T03:48:54.258Z,-0.45
2023-04-27T03:50:34.662Z,-0.48
2023-04-27T03:52:14.913Z,-0.54
2023-04-27T03:53:55.305Z,-0.55
2023-04-27T03:55:35.745Z,-0.62
2023-04-27T03:57:16.151Z,-0.62
2023-04-27T03:58:56.452Z,-0.68
2023-04-27T04:00:36.861Z,-0.7
2023-04-27T04:02:17.316Z,-0.75
2023-04-27T04:03:57.978Z,-0.85
2023-04-27T04:05:38.043Z,-0.89
2023-04-27T04:07:18.373Z,-0.9
2023-04-27T04:08:58.832Z,-0.9
2023-04-27T04:10:39.227Z,-0.9
2023-04-27T04:12:19.630Z,-0.96
2023-04-27T04:14:00.132Z,-1.06
2023-04-27T04:15:40.477Z,-1.1
2023-04-27T04:17:20.796Z,-1.16
2023-04-27T04:19:01.163Z,-1.23
2023-04-27T04:20:41.628Z,-1.27
2023-04-27T04:22:21.996Z,-1.3
2023-04-27T04:24:02.423Z,-1.34
2023-04-27T04:25:42.939Z,-1.36
2023-04-27T04:27:23.306Z,-1.37
2023-04-27T04:29:03.794Z,-1.41
2023-04-27T04:30:44.254Z,-1.44
2023-04-27T04:32:24.664Z,-1.48
2023-04-27T04:34:04.996Z,-1.51
2023-04-27T04:35:45.347Z,-1.54
2023-04-27T04:37:25.779Z,-1.58
2023-04-27T04:39:06.268Z,-1.55
2023-04-27T04:40:46.573Z,-1.55
2023-04-27T04:42:27.114Z,-1.59
2023-04-27T04:44:07.455Z,-1.58
2023-04-27T04:45:47.835Z,-1.59
2023-04-27T04:47:28.309Z,-1.58
2023-04-27T04:49:08.623Z,-1.59
2023-04-27T04:50:49.060Z,-1.61
2023-04-27T04:52:29.437Z,-1.62
2023-04-27T04:54:09.830Z,-1.55
2023-04-27T04:55:50.293Z,-1.54
2023-04-27T04:57:30.656Z,-1.51
2023-04-27T04:59:11.211Z,-1.43
2023-04-27T05:00:51.520Z,-1.38
2023-04-27T05:02:32.075Z,-1.36
2023-04-27T05:04:12.597Z,-1.34
2023-04-27T05:05:52.960Z,-1.34
2023-04-27T05:07:33.347Z,-1.31
2023-04-27T05:09:13.911Z,-1.26
2023-04-27T05:10:54.155Z,-1.17
2023-04-27T05:12:34.625Z,-1.14
2023-04-27T05:14:15.081Z,-1.1
2023-04-27T05:15:55.454Z,-1.06
2023-04-27T05:17:35.841Z,-0.99
2023-04-27T05:19:16.284Z,-0.92
2023-04-27T05:20:56.655Z,-0.88
2023-04-27T05:22:37.081Z,-0.86
2023-04-27T05:24:17.506Z,-0.8
2023-04-27T05:25:57.897Z,-0.76
2023-04-27T05:27:38.314Z,-0.73
2023-04-27T05:29:18.650Z,-0.64
2023-04-27T05:30:59.017Z,-0.58
2023-04-27T05:32:39.431Z,-0.54
2023-04-27T05:34:19.889Z,-0.51
2023-04-27T05:36:00.283Z,-0.42
2023-04-27T05:37:40.663Z,-0.37
2023-04-27T05:39:21.060Z,-0.24
2023-04-27T05:41:01.495Z,-0.14
2023-04-27T05:42:41.848Z,-0.06
2023-04-27T05:44:22.263Z,0.04
2023-04-27T05:46:02.651Z,0.14
2023-04-27T05:47:43.188Z,0.24
2023-04-27T05:49:23.509Z,0.34
2023-04-27T05:51:03.892Z,0.48
2023-04-27T05:52:44.329Z,0.62
2023-04-27T05:54:24.699Z,0.8
2023-04-27T05:56:05.081Z,0.95
2023-04-27T05:57:47.705Z,1.13
2023-04-27T05:59:25.966Z,1.33
2023-04-27T06:01:06.343Z,1.5
2023-04-27T06:02:46.905Z,1.66
2023-04-27T06:04:27.333Z,1.86
2023-04-27T06:06:07.498Z,1.95
2023-04-27T06:07:47.922Z,2.1
2023-04-27T06:09:28.275Z,2.29
2023-04-27T06:11:08.698Z,2.43
2023-04-27T06:12:49.184Z,2.55
2023-04-27T06:14:29.557Z,2.72
2023-04-27T06:16:10.018Z,2.91
2023-04-27T06:17:50.384Z,3.08
2023-04-27T06:19:30.725Z,3.27
2023-04-27T06:21:11.130Z,3.36
2023-04-27T06:22:51.567Z,3.47
2023-04-27T06:24:31.986Z,3.66
2023-04-27T06:26:12.398Z,3.75
2023-04-27T06:27:52.921Z,3.89
2023-04-27T06:29:33.373Z,4.01
2023-04-27T06:31:13.778Z,4.13
2023-04-27T06:32:54.209Z,4.28
2023-04-27T06:34:34.576Z,4.44
2023-04-27T06:36:15.014Z,4.57
2023-04-27T06:37:55.448Z,4.7
2023-04-27T06:39:35.806Z,4.83
2023-04-27T06:41:16.228Z,4.96
2023-04-27T06:42:56.638Z,5.1
2023-04-27T06:44:37.033Z,5.15
2023-04-27T06:46:17.475Z,5.26
2023-04-27T06:47:57.853Z,5.39
2023-04-27T06:49:38.298Z,5.52
2023-04-27T06:51:18.776Z,5.63
2023-04-27T06:52:59.242Z,5.74
2023-04-27T06:54:39.688Z,5.8
2023-04-27T06:56:20.055Z,5.97
2023-04-27T06:58:00.531Z,6.19
2023-04-27T06:59:40.941Z,6.32
2023-04-27T07:01:21.352Z,6.42
2023-04-27T07:03:01.810Z,6.57
2023-04-27T07:04:42.174Z,6.7
2023-04-27T07:06:22.492Z,6.84
2023-04-27T07:08:07.010Z,7
2023-04-27T07:09:43.332Z,7.14
2023-04-27T07:11:23.732Z,7.34
2023-04-27T07:13:04.809Z,7.48
2023-04-27T07:14:44.586Z,7.62
2023-04-27T07:16:25.011Z,7.72
2023-04-27T07:18:05.560Z,7.85
2023-04-27T07:19:45.816Z,8.04
2023-04-27T07:21:26.203Z,8.24
2023-04-27T07:23:06.618Z,8.35
2023-04-27T07:24:47.030Z,8.45
2023-04-27T07:26:27.423Z,8.55
2023-04-27T07:28:07.846Z,8.75
2023-04-27T07:29:48.275Z,8.82
2023-04-27T07:31:28.760Z,8.93
2023-04-27T07:33:09.144Z,9.1
2023-04-27T07:34:53.461Z,9.2
2023-04-27T07:36:29.964Z,9.33
2023-04-27T07:38:10.354Z,9.5
2023-04-27T07:39:50.831Z,9.61
2023-04-27T07:41:31.142Z,9.78
2023-04-27T07:43:11.495Z,9.89
2023-04-27T07:44:51.861Z,10
2023-04-27T07:46:32.262Z,10.14
2023-04-27T07:48:12.737Z,10.27
2023-04-27T07:49:53.184Z,10.47
2023-04-27T07:51:33.545Z,10.67
2023-04-27T07:53:13.950Z,10.78
2023-04-27T07:54:54.345Z,10.94
2023-04-27T07:56:34.792Z,11.09
2023-04-27T07:58:15.198Z,11.18
2023-04-27T07:59:55.578Z,11.26
2023-04-27T08:01:36.044Z,11.47
2023-04-27T08:03:16.604Z,11.64
2023-04-27T08:04:57.217Z,11.78
2023-04-27T08:06:38.015Z,11.92
2023-04-27T08:08:18.059Z,12.02
2023-04-27T08:09:57.980Z,12.21
2023-04-27T08:11:38.391Z,12.33
2023-04-27T08:13:18.855Z,12.38
2023-04-27T08:14:59.287Z,12.48
2023-04-27T08:16:39.692Z,12.64
2023-04-27T08:18:20.101Z,12.73
2023-04-27T08:20:00.527Z,12.87
2023-04-27T08:21:40.926Z,13
2023-04-27T08:23:21.283Z,13.13
2023-04-27T08:25:01.714Z,13.29
2023-04-27T08:26:42.143Z,13.35
2023-04-27T08:28:22.545Z,13.49
2023-04-27T08:30:02.951Z,13.73
2023-04-27T08:31:43.432Z,13.79
2023-04-27T08:33:23.738Z,13.94
2023-04-27T08:35:04.191Z,14.16
2023-04-27T08:36:44.620Z,14.35
2023-04-27T08:38:25.767Z,14.72
2023-04-27T08:40:05.439Z,14.76
2023-04-27T08:41:45.823Z,14.79
2023-04-27T08:43:26.219Z,14.98
2023-04-27T08:45:06.591Z,15.11
2023-04-27T08:46:46.981Z,15.33
2023-04-27T08:48:27.343Z,15.4
2023-04-27T08:50:07.703Z,15.22
2023-04-27T08:51:48.130Z,15.36
2023-04-27T08:53:28.490Z,15.46
2023-04-27T08:55:08.885Z,15.62
2023-04-27T08:56:49.163Z,15.57
2023-04-27T08:58:29.546Z,15.68
2023-04-27T09:00:09.894Z,15.88
2023-04-27T09:01:50.312Z,15.78
2023-04-27T09:03:30.903Z,15.82
2023-04-27T09:05:11.278Z,15.92
2023-04-27T09:06:51.532Z,15.94
2023-04-27T09:08:31.811Z,15.99
2023-04-27T09:10:12.254Z,16.16
2023-04-27T09:11:52.699Z,15.99
2023-04-27T09:13:33.102Z,15.85
2023-04-27T09:15:13.522Z,15.91
2023-04-27T09:16:53.921Z,16.01
2023-04-27T09:18:34.278Z,16.08
2023-04-27T09:20:14.723Z,16.29
2023-04-27T09:21:55.140Z,16.25
2023-04-27T09:23:35.590Z,16.12
2023-04-27T09:25:15.904Z,16.11
2023-04-27T09:26:56.677Z,16.12
2023-04-27T09:28:36.640Z,16.13
2023-04-27T09:30:17.054Z,16.17
2023-04-27T09:31:57.502Z,16.3
2023-04-27T09:33:37.888Z,16.49
2023-04-27T09:35:18.244Z,16.66
2023-04-27T09:36:58.676Z,16.67
2023-04-27T09:38:39.029Z,16.7
2023-04-27T09:40:19.496Z,16.74
2023-04-27T09:41:59.828Z,16.68
2023-04-27T09:43:40.257Z,16.84
2023-04-27T09:45:20.716Z,16.85
2023-04-27T09:47:01.156Z,17.07
2023-04-27T09:48:41.541Z,17.01
2023-04-27T09:50:21.933Z,17.23
2023-04-27T09:52:02.386Z,17.38
2023-04-27T09:53:42.695Z,17.3
2023-04-27T09:55:23.116Z,17.52
2023-04-27T09:57:03.563Z,17.62
2023-04-27T09:58:43.858Z,17.69
2023-04-27T10:00:24.241Z,17.53
2023-04-27T10:02:17.194Z,17.53
2023-04-27T10:03:45.233Z,17.52
2023-04-27T10:05:25.669Z,17.5
2023-04-27T10:07:05.991Z,17.19
2023-04-27T10:08:46.383Z,17.29
2023-04-27T10:10:26.798Z,17.57
2023-04-27T10:12:07.197Z,17.69
2023-04-27T10:13:47.613Z,17.74
2023-04-27T10:15:27.941Z,17.87
2023-04-27T10:17:08.388Z,18
2023-04-27T10:18:48.760Z,18.17
2023-04-27T10:20:29.208Z,18.28
2023-04-27T10:22:09.609Z,18.34
2023-04-27T10:23:50.052Z,17.96
2023-04-27T10:25:30.546Z,17.94
2023-04-27T10:27:10.893Z,17.93
2023-04-27T10:28:51.341Z,18.04
2023-04-27T10:30:31.802Z,18.21
2023-04-27T10:32:12.194Z,18.39
2023-04-27T10:33:52.603Z,18.72
2023-04-27T10:35:32.928Z,18.86
2023-04-27T10:37:13.280Z,18.87
2023-04-27T10:38:53.740Z,18.77
2023-04-27T10:40:34.196Z,18.96
2023-04-27T10:42:14.652Z,19.04
2023-04-27T10:43:55.043Z,18.97
2023-04-27T10:45:35.490Z,18.94
2023-04-27T10:47:15.894Z,18.87
2023-04-27T10:48:56.326Z,18.96
2023-04-27T10:50:36.773Z,19.21
2023-04-27T10:52:17.133Z,18.79
2023-04-27T10:53:57.593Z,18.46
2023-04-27T10:55:37.998Z,18.82
2023-04-27T10:57:18.286Z,18.87
2023-04-27T10:58:58.751Z,18.8
2023-04-27T11:00:39.078Z,18.76
2023-04-27T11:02:19.530Z,18.59
2023-04-27T11:03:59.934Z,18.44
2023-04-27T11:05:40.276Z,18.8
2023-04-27T11:07:20.704Z,18.56
2023-04-27T11:09:01.108Z,18.35
2023-04-27T11:10:41.538Z,18.24
2023-04-27T11:12:22.014Z,18.11
2023-04-27T11:14:02.401Z,17.83
2023-04-27T11:15:42.880Z,18.11
2023-04-27T11:17:23.214Z,18.46
2023-04-27T11:19:03.639Z,18.72
2023-04-27T11:20:44.081Z,18.89
2023-04-27T11:22:24.526Z,18.97
2023-04-27T11:24:04.956Z,19.25
2023-04-27T11:25:45.295Z,19.38
2023-04-27T11:27:25.603Z,19.6
2023-04-27T11:29:05.991Z,19.42
2023-04-27T11:30:46.430Z,19.5
2023-04-27T11:32:26.891Z,19.55
2023-04-27T11:34:07.956Z,19.55
2023-04-27T11:35:47.625Z,19.31
2023-04-27T11:37:28.074Z,19.44
2023-04-27T11:39:08.544Z,19.71
2023-04-27T11:40:48.830Z,19.96
2023-04-27T11:42:29.329Z,20.03
2023-04-27T11:44:09.561Z,20.19
2023-04-27T11:45:49.906Z,20.37
2023-04-27T11:47:30.446Z,20.3
2023-04-27T11:49:10.931Z,19.73
2023-04-27T11:50:51.223Z,19.27
2023-04-27T11:52:31.674Z,19.32
2023-04-27T11:54:12.390Z,19.48
2023-04-27T11:55:52.509Z,19.37
2023-04-27T11:57:32.954Z,19.45
2023-04-27T11:59:13.542Z,19.78
2023-04-27T12:00:53.772Z,20.08
2023-04-27T12:02:34.250Z,20.2
2023-04-27T12:04:14.977Z,20.37
2023-04-27T12:05:55.024Z,20.15
2023-04-27T12:07:35.323Z,20.31
2023-04-27T12:09:15.702Z,20.46
2023-04-27T12:10:56.006Z,20.23
2023-04-27T12:12:36.392Z,20.31
2023-04-27T12:14:17.021Z,20.34
2023-04-27T12:15:58.492Z,20.44
2023-04-27T12:17:37.599Z,20.58
2023-04-27T12:19:17.916Z,20.82
2023-04-27T12:21:02.757Z,20.67
2023-04-27T12:22:38.729Z,20.75
2023-04-27T12:24:19.107Z,20.77
2023-04-27T12:25:59.484Z,20.75
2023-04-27T12:27:39.917Z,20.75
2023-04-27T12:29:20.350Z,20.47
2023-04-27T12:31:00.746Z,20.4
2023-04-27T12:32:41.165Z,20.16
2023-04-27T12:34:21.549Z,19.9
2023-04-27T12:36:02.004Z,19.73
2023-04-27T12:37:42.364Z,19.62
2023-04-27T12:39:22.748Z,19.58
2023-04-27T12:41:03.108Z,19.45
2023-04-27T12:42:43.521Z,19.48
2023-04-27T12:44:23.944Z,19.51
2023-04-27T12:46:04.485Z,19.68
2023-04-27T12:48:01.058Z,19.85
2023-04-27T12:49:25.270Z,20.03
2023-04-27T12:51:05.614Z,19.99
2023-04-27T12:52:46.039Z,19.88
2023-04-27T12:54:26.455Z,19.78
2023-04-27T12:56:06.774Z,19.69
2023-04-27T12:57:47.283Z,19.5
2023-04-27T12:59:27.709Z,19.17
2023-04-27T13:01:08.185Z,19.35
2023-04-27T13:02:48.719Z,19.32
2023-04-27T13:04:29.207Z,19.21
2023-04-27T13:06:09.500Z,19.38
2023-04-27T13:07:49.919Z,19.28
2023-04-27T13:09:30.365Z,19.85
2023-04-27T13:11:10.774Z,20.4
2023-04-27T13:12:51.169Z,20.79
2023-04-27T13:14:31.548Z,21.23
2023-04-27T13:16:11.934Z,21.06
2023-04-27T13:17:52.489Z,20.77
2023-04-27T13:19:32.759Z,20.84
2023-04-27T13:21:13.195Z,20.99
2023-04-27T13:22:53.632Z,21.03
2023-04-27T13:24:34.040Z,20.63
2023-04-27T13:26:14.511Z,20.13
2023-04-27T13:27:54.951Z,19.6
2023-04-27T13:29:35.305Z,18.96
2023-04-27T13:31:15.760Z,18.49
2023-04-27T13:33:04.262Z,18.18
2023-04-27T13:34:36.440Z,18.34
2023-04-27T13:36:16.899Z,18.56
2023-04-27T13:37:57.232Z,18.76
2023-04-27T13:39:37.741Z,19.02
2023-04-27T13:41:18.028Z,19.34
2023-04-27T13:42:58.423Z,18.82
2023-04-27T13:44:38.786Z,18.77
2023-04-27T13:46:19.150Z,18.58
2023-04-27T13:47:59.653Z,18.62
2023-04-27T13:49:39.950Z,19.24
2023-04-27T13:51:20.370Z,19.65
2023-04-27T13:53:00.751Z,19.58
2023-04-27T13:54:41.104Z,19.61
2023-04-27T13:56:21.471Z,19.47
2023-04-27T13:58:01.774Z,19.39
2023-04-27T13:59:42.193Z,18.96
2023-04-27T14:01:22.718Z,18.92
2023-04-27T14:03:03.136Z,19.23
2023-04-27T14:04:43.449Z,19.52
2023-04-27T14:06:23.715Z,19.66
2023-04-27T14:08:04.195Z,19.44
2023-04-27T14:09:44.624Z,19.14
2023-04-27T14:11:25.022Z,18.55
2023-04-27T14:13:05.470Z,18.41
2023-04-27T14:14:45.939Z,18.46
2023-04-27T14:16:26.403Z,18.34
2023-04-27T14:18:06.745Z,18.35
2023-04-27T14:19:47.087Z,18.18
2023-04-27T14:21:27.475Z,17.98
2023-04-27T14:23:07.902Z,17.97
2023-04-27T14:24:48.285Z,18.15
2023-04-27T14:26:28.767Z,18.51
2023-04-27T14:28:09.147Z,18.34
2023-04-27T14:29:49.643Z,18.31
2023-04-27T14:31:30.081Z,18.29
2023-04-27T14:33:10.609Z,18.38
2023-04-27T14:34:50.958Z,18.28
2023-04-27T14:36:31.298Z,18.32
2023-04-27T14:38:11.690Z,18.29
2023-04-27T14:39:52.064Z,17.97
2023-04-27T14:41:32.489Z,17.9
2023-04-27T14:43:12.927Z,18.01
2023-04-27T14:44:53.298Z,18.05
2023-04-27T14:46:33.686Z,17.67
2023-04-27T14:48:14.025Z,17.4
2023-04-27T14:49:54.352Z,17.21
2023-04-27T14:51:34.684Z,17.12
2023-04-27T14:53:15.194Z,17.29
2023-04-27T14:54:55.543Z,17.3
2023-04-27T14:56:35.896Z,17.57
2023-04-27T14:58:16.270Z,17.39
2023-04-27T14:59:56.720Z,17.42
2023-04-27T15:01:37.249Z,17.8
2023-04-27T15:03:17.693Z,17.74
2023-04-27T15:04:58.013Z,17.97
2023-04-27T15:06:38.351Z,18.23
2023-04-27T15:08:18.792Z,18.03
2023-04-27T15:10:02.258Z,17.69
2023-04-27T15:11:39.677Z,17.7
2023-04-27T15:13:20.039Z,17.63
2023-04-27T15:15:00.464Z,17.54
2023-04-27T15:16:40.857Z,17.39
2023-04-27T15:18:21.383Z,17.35
2023-04-27T15:20:01.727Z,17.49
2023-04-27T15:21:42.124Z,17.43
2023-04-27T15:23:22.525Z,17.09
2023-04-27T15:25:02.937Z,16.78
2023-04-27T15:26:43.365Z,16.53
2023-04-27T15:28:23.748Z,16.33
2023-04-27T15:30:04.158Z,16.39
2023-04-27T15:31:44.613Z,16.44
2023-04-27T15:33:25.047Z,16.77
2023-04-27T15:35:05.469Z,16.82
2023-04-27T15:36:45.923Z,17.07
2023-04-27T15:38:29.406Z,17.22
2023-04-27T15:40:06.846Z,17.54
2023-04-27T15:41:47.317Z,17.76
2023-04-27T15:43:27.749Z,17.79
2023-04-27T15:45:10.010Z,17.88
2023-04-27T15:46:48.559Z,17.93
2023-04-27T15:48:28.940Z,18.17
2023-04-27T15:50:09.310Z,18.24
2023-04-27T15:51:49.703Z,18.36
2023-04-27T15:53:30.186Z,18.25
2023-04-27T15:55:10.678Z,18.01
2023-04-27T15:56:51.098Z,17.65
2023-04-27T15:58:31.499Z,17.86
2023-04-27T16:00:11.924Z,17.66
2023-04-27T16:01:52.364Z,17.62
2023-04-27T16:03:32.794Z,17.81
2023-04-27T16:05:20.640Z,17.87
2023-04-27T16:07:00.612Z,17.76
2023-04-27T16:08:40.970Z,17.76
2023-04-27T16:10:21.317Z,17.4
2023-04-27T16:12:01.734Z,17.08
2023-04-27T16:13:42.092Z,16.95
2023-04-27T16:15:22.563Z,17.04
2023-04-27T16:17:02.916Z,17.07
2023-04-27T16:18:43.285Z,17.08
2023-04-27T16:20:23.711Z,17.01
2023-04-27T16:22:04.128Z,16.94
2023-04-27T16:23:44.735Z,16.88
2023-04-27T16:25:24.836Z,16.78
2023-04-27T16:27:05.212Z,16.67
2023-04-27T16:28:45.519Z,16.49
2023-04-27T16:30:25.891Z,16.37
2023-04-27T16:32:06.356Z,16.22
2023-04-27T16:33:46.687Z,15.88
2023-04-27T16:35:27.044Z,15.91
2023-04-27T16:37:07.432Z,15.94
2023-04-27T16:38:47.851Z,15.91
2023-04-27T16:40:28.211Z,15.78
2023-04-27T16:42:08.539Z,15.68
2023-04-27T16:43:48.921Z,15.54
2023-04-27T16:45:29.272Z,15.38
2023-04-27T16:47:09.659Z,15.11
2023-04-27T16:48:50.213Z,14.99
2023-04-27T16:50:30.499Z,14.95
2023-04-27T16:52:10.968Z,14.89
2023-04-27T16:53:51.373Z,14.71
2023-04-27T16:55:31.788Z,14.64
2023-04-27T16:57:12.202Z,14.55
2023-04-27T16:58:52.622Z,14.42
2023-04-27T17:00:33.014Z,14.4
2023-04-27T17:02:23.635Z,14.3
2023-04-27T17:03:54.001Z,14.21
2023-04-27T17:05:34.220Z,14.07
2023-04-27T17:07:14.629Z,14.02
2023-04-27T17:08:54.979Z,13.99
2023-04-27T17:10:35.429Z,13.89
2023-04-27T17:12:15.871Z,13.79
2023-04-27T17:13:56.252Z,13.7
2023-04-27T17:15:36.627Z,13.62
2023-04-27T17:17:16.999Z,13.61
2023-04-27T17:18:57.383Z,13.54
2023-04-27T17:20:39.741Z,13.46
2023-04-27T17:22:18.251Z,13.42
2023-04-27T17:23:58.617Z,13.38
2023-04-27T17:25:39.032Z,13.34
2023-04-27T17:27:19.503Z,13.31
2023-04-27T17:29:00.024Z,13.28
2023-04-27T17:30:40.278Z,13.28
2023-04-27T17:32:20.826Z,13.28
2023-04-27T17:34:01.131Z,13.25
2023-04-27T17:35:41.469Z,13.25
2023-04-27T17:37:21.881Z,13.19
2023-04-27T17:39:02.343Z,13.1
2023-04-27T17:40:42.739Z,13.08
2023-04-27T17:42:23.110Z,13.07
2023-04-27T17:44:03.443Z,13.04
2023-04-27T17:45:43.810Z,12.93
2023-04-27T17:47:24.233Z,12.79
2023-04-27T17:49:04.685Z,12.72
2023-04-27T17:50:45.021Z,12.63
2023-04-27T17:52:25.403Z,12.57
2023-04-27T17:54:05.829Z,12.49
2023-04-27T17:55:46.279Z,12.39
2023-04-27T17:57:26.632Z,12.25
2023-04-27T17:59:07.061Z,12.14
2023-04-27T18:00:47.464Z,12.04
2023-04-27T18:02:27.944Z,11.88
2023-04-27T18:04:08.425Z,11.8
2023-04-27T18:05:55.805Z,11.77
2023-04-27T18:07:29.071Z,11.7
2023-04-27T18:09:09.550Z,11.61
2023-04-27T18:10:49.964Z,11.49
2023-04-27T18:12:30.421Z,11.37
2023-04-27T18:14:10.907Z,11.25
2023-04-27T18:15:54.399Z,11.13
2023-04-27T18:17:31.727Z,10.99
2023-04-27T18:19:12.077Z,10.86
2023-04-27T18:20:52.358Z,10.82
2023-04-27T18:22:32.766Z,10.82
2023-04-27T18:24:13.215Z,10.71
2023-04-27T18:25:53.680Z,10.58
2023-04-27T18:27:34.097Z,10.43
2023-04-27T18:29:14.666Z,10.26
2023-04-27T18:30:54.943Z,10.12
2023-04-27T18:32:35.437Z,10.05
2023-04-27T18:34:15.804Z,9.95
2023-04-27T18:35:56.206Z,9.84
2023-04-27T18:37:36.561Z,9.66
2023-04-27T18:39:17.074Z,9.57
2023-04-27T18:40:57.362Z,9.52
2023-04-27T18:42:37.772Z,9.44
2023-04-27T18:44:18.158Z,9.33
2023-04-27T18:45:58.582Z,9.19
2023-04-27T18:47:39.030Z,9.14
2023-04-27T18:49:19.331Z,9.04
2023-04-27T18:50:59.720Z,8.93
2023-04-27T18:52:40.064Z,8.89
2023-04-27T18:54:20.502Z,8.84
2023-04-27T18:56:00.969Z,8.79
2023-04-27T18:57:41.406Z,8.69
2023-04-27T18:59:21.742Z,8.55
2023-04-27T19:01:02.146Z,8.41
2023-04-27T19:02:42.606Z,8.28
2023-04-27T19:04:22.966Z,8.25
2023-04-27T19:06:03.318Z,8.14
2023-04-27T19:07:43.728Z,8.05
2023-04-27T19:09:24.062Z,8.04
2023-04-27T19:11:04.459Z,7.97
2023-04-27T19:12:44.892Z,7.89
2023-04-27T19:14:25.252Z,7.86
2023-04-27T19:16:05.664Z,7.82
2023-04-27T19:17:47.286Z,7.75
2023-04-27T19:19:26.773Z,7.72
2023-04-27T19:21:08.987Z,7.7
2023-04-27T19:22:47.306Z,7.7
2023-04-27T19:24:27.739Z,7.7
2023-04-27T19:26:12.884Z,7.63
2023-04-27T19:27:48.640Z,7.62
2023-04-27T19:29:32.078Z,7.55
2023-04-27T19:31:09.473Z,7.49
2023-04-27T19:32:49.860Z,7.48
2023-04-27T19:34:30.269Z,7.41
2023-04-27T19:36:10.646Z,7.44
2023-04-27T19:37:50.933Z,7.38
2023-04-27T19:39:33.074Z,7.34
2023-04-27T19:41:11.670Z,7.27
2023-04-27T19:42:52.076Z,7.21
2023-04-27T19:44:32.464Z,7.18
2023-04-27T19:46:12.887Z,7.11
2023-04-27T19:47:53.266Z,7.07
2023-04-27T19:49:33.650Z,7
2023-04-27T19:51:13.967Z,6.97
2023-04-27T19:52:54.363Z,6.87
2023-04-27T19:54:34.762Z,6.8
2023-04-27T19:56:15.105Z,6.76
2023-04-27T19:57:55.504Z,6.7
2023-04-27T19:59:35.886Z,6.65
2023-04-27T20:01:16.417Z,6.56
2023-04-27T20:02:56.920Z,6.45
2023-04-27T20:04:37.348Z,6.43
2023-04-27T20:06:17.516Z,6.32
2023-04-27T20:07:57.896Z,6.25
2023-04-27T20:09:38.260Z,6.24
2023-04-27T20:11:18.700Z,6.12
2023-04-27T20:12:59.058Z,6.05
2023-04-27T20:14:39.507Z,5.93
2023-04-27T20:16:19.927Z,5.84
2023-04-27T20:18:00.246Z,5.81
2023-04-27T20:19:43.733Z,5.75
2023-04-27T20:21:20.941Z,5.77
2023-04-27T20:23:01.328Z,5.71
2023-04-27T20:24:41.712Z,5.63
2023-04-27T20:26:22.115Z,5.59
2023-04-27T20:28:02.571Z,5.53
2023-04-27T20:29:43.015Z,5.46
2023-04-27T20:31:23.501Z,5.39
2023-04-27T20:33:03.895Z,5.36
2023-04-27T20:34:44.234Z,5.32
2023-04-27T20:36:24.761Z,5.33
2023-04-27T20:38:05.113Z,5.21
2023-04-27T20:39:45.510Z,5.18
2023-04-27T20:41:25.978Z,5.08
2023-04-27T20:43:06.338Z,4.99
2023-04-27T20:44:46.668Z,4.94
2023-04-27T20:46:27.055Z,4.91
2023-04-27T20:48:07.524Z,4.83
2023-04-27T20:49:47.887Z,4.81
2023-04-27T20:51:28.291Z,4.78
2023-04-27T20:53:08.718Z,4.75
2023-04-27T20:54:49.120Z,4.71
2023-04-27T20:56:29.502Z,4.68
2023-04-27T20:58:09.895Z,4.67
2023-04-27T20:59:50.233Z,4.63
2023-04-27T21:01:30.635Z,4.63
2023-04-27T21:03:11.195Z,4.63
2023-04-27T21:04:51.602Z,4.52
2023-04-27T21:06:31.927Z,4.49
2023-04-27T21:08:12.226Z,4.5
2023-04-27T21:09:52.715Z,4.54
2023-04-27T21:11:33.114Z,4.5
2023-04-27T21:13:13.515Z,4.52
2023-04-27T21:14:53.927Z,4.52
2023-04-27T21:16:34.323Z,4.46
2023-04-27T21:18:28.882Z,4.49
2023-04-27T21:19:55.053Z,4.49
2023-04-27T21:21:35.399Z,4.49
2023-04-27T21:23:15.780Z,4.52
2023-04-27T21:24:56.179Z,4.5
2023-04-27T21:26:36.579Z,4.56
2023-04-27T21:28:16.995Z,4.59
2023-04-27T21:29:57.347Z,4.65
2023-04-27T21:31:37.812Z,4.64
2023-04-27T21:33:18.203Z,4.67
2023-04-27T21:34:58.504Z,4.67
2023-04-27T21:36:38.788Z,4.7
2023-04-27T21:38:19.143Z,4.75
2023-04-27T21:39:59.500Z,4.75
2023-04-27T21:41:39.950Z,4.75
2023-04-27T21:43:20.341Z,4.73
2023-04-27T21:45:00.847Z,4.78
2023-04-27T21:46:41.223Z,4.77
2023-04-27T21:48:21.609Z,4.85